This is the latest recevied weather packets stored in our database for station/object F4AMY-13. If no packets are shown the sender has not sent any weather packets the latest 10 day(s).
| Time | Temp. | Humidity | Pressure | Rain* | Wind** | Luminosity | Snow |
|---|---|---|---|---|---|---|---|
| 1777045907 | 26.67° C | 36% | 1016.3 hPa | 0 mm | 163.17 m/s, ° | 365 W/m² | - |
| 1777045607 | 26.67° C | 36% | 1016.3 hPa | 0 mm | 163.17 m/s, ° | 365 W/m² | - |
| 1777045307 | 26.11° C | 35% | 1016.4 hPa | 0 mm | 164.96 m/s, ° | 369 W/m² | - |
| 1777045007 | 26.11° C | 37% | 1016.5 hPa | 0 mm | 165.4 m/s, ° | 370 W/m² | - |
| 1777044707 | 26.11° C | 37% | 1016.1 hPa | 0 mm | 168.09 m/s, ° | 376 W/m² | - |
| 1777044407 | 26.11° C | 37% | 1016.2 hPa | 0 mm | 169.43 m/s, ° | 379 W/m² | - |
| 1777044107 | 26.11° C | 35% | 1016.1 hPa | 0 mm | 173 m/s, ° | 387 W/m² | - |
| 1777043807 | 26.11° C | 35% | 1016.3 hPa | 0 mm | 173.9 m/s, ° | 389 W/m² | - |
| 1777043507 | 26.11° C | 39% | 1016.4 hPa | 0 mm | 174.79 m/s, ° | 391 W/m² | - |
| 1777043207 | 26.11° C | 34% | 1016.2 hPa | 0 mm | 178.37 m/s, ° | 399 W/m² | - |
| 1777042907 | 26.11° C | 34% | 1016.5 hPa | 0 mm | 180.6 m/s, ° | 404 W/m² | - |
| 1777042607 | 26.67° C | 35% | 1016.2 hPa | 0 mm | 181.95 m/s, ° | 407 W/m² | - |
| 1777042306 | 26.67° C | 33% | 1016.4 hPa | 0 mm | 184.63 m/s, ° | 413 W/m² | - |
| 1777042006 | 26.67° C | 34% | 1016.3 hPa | 0 mm | 186.42 m/s, ° | 417 W/m² | - |
| 1777041706 | 26.67° C | 37% | 1016.5 hPa | 0 mm | 187.76 m/s, ° | 420 W/m² | - |
| 1777041406 | 26.11° C | 38% | 1016.4 hPa | 0 mm | 188.65 m/s, ° | 422 W/m² | - |
| 1777041106 | 26.11° C | 36% | 1016.5 hPa | 0 mm | 189.99 m/s, ° | 425 W/m² | - |
| 1777040806 | 26.11° C | 36% | 1016.2 hPa | 0 mm | 193.12 m/s, ° | 432 W/m² | - |
| 1777040506 | 25.56° C | 37% | 1016.6 hPa | 0 mm | 193.57 m/s, ° | 433 W/m² | - |
| 1777040206 | 25.56° C | 37% | 1016.7 hPa | 0 mm | 193.57 m/s, ° | 433 W/m² | - |
| 1777039906 | 25.56° C | 37% | 1016.5 hPa | 0 mm | 194.02 m/s, ° | 434 W/m² | - |
| 1777039606 | 25.56° C | 39% | 1016.2 hPa | 0 mm | 194.91 m/s, ° | 436 W/m² | - |
| 1777039306 | 26.11° C | 38% | 1016.5 hPa | 0 mm | 197.14 m/s, ° | 441 W/m² | - |
| 1777039006 | 26.11° C | 42% | 1016.9 hPa | 0 mm | 198.04 m/s, ° | 443 W/m² | - |
| 1777038706 | 26.11° C | 37% | 1016.6 hPa | 0 mm | 199.38 m/s, ° | 446 W/m² | - |
* Rain latest hour (hover to see other rain measurements)
** Current wind speed in m/s (hover to see current wind gust speed)